createdAt,value
2023-05-07T00:00:08.798Z,11.54
2023-05-07T00:05:17.815Z,13.19
2023-05-07T00:10:26.312Z,13.82
2023-05-07T00:15:35.039Z,13.47
2023-05-07T00:20:43.781Z,12.08
2023-05-07T00:25:52.562Z,12.22
2023-05-07T00:31:01.028Z,12.81
2023-05-07T00:36:09.890Z,11.45
2023-05-07T00:41:18.633Z,11.50
2023-05-07T00:46:27.503Z,11.76
2023-05-07T00:51:35.983Z,13.88
2023-05-07T00:56:45.139Z,12.66
2023-05-07T01:01:53.823Z,13.51
2023-05-07T01:07:02.763Z,13.53
2023-05-07T01:12:10.757Z,12.84
2023-05-07T01:17:19.638Z,12.81
2023-05-07T01:22:27.805Z,14.73
2023-05-07T01:27:36.452Z,16.31
2023-05-07T01:32:44.802Z,16.74
2023-05-07T01:37:54.000Z,13.69
2023-05-07T01:43:02.720Z,15.08
2023-05-07T01:48:11.573Z,16.02
2023-05-07T01:53:20.168Z,15.07
2023-05-07T01:58:29.078Z,11.81
2023-05-07T02:03:37.784Z,14.05
2023-05-07T02:08:46.473Z,14.13
2023-05-07T02:13:58.084Z,14.79
2023-05-07T02:18:56.818Z,17.05
2023-05-07T02:24:05.623Z,15.37
2023-05-07T02:29:15.265Z,15.19
2023-05-07T02:34:23.688Z,15.83
2023-05-07T02:39:32.547Z,13.67
2023-05-07T02:44:41.047Z,13.67
2023-05-07T02:49:49.965Z,14.59
2023-05-07T02:54:58.553Z,12.28
2023-05-07T03:00:07.274Z,11.33
2023-05-07T03:05:15.766Z,12.54
2023-05-07T03:10:24.960Z,9.20
2023-05-07T03:15:36.629Z,8.53
2023-05-07T03:20:35.357Z,8.74
2023-05-07T03:25:44.029Z,8.17
2023-05-07T03:30:52.784Z,8.68
2023-05-07T03:36:01.603Z,7.05
2023-05-07T03:41:11.356Z,7.31
2023-05-07T03:46:20.033Z,6.73
2023-05-07T03:51:28.343Z,7.46
2023-05-07T03:56:37.399Z,6.58
2023-05-07T04:01:46.938Z,6.15
2023-05-07T04:06:55.500Z,7.18
2023-05-07T04:12:04.283Z,6.40
2023-05-07T04:17:13.156Z,6.48
2023-05-07T04:22:22.028Z,6.33
2023-05-07T04:27:30.242Z,7.04
2023-05-07T04:32:40.368Z,6.95
2023-05-07T04:37:38.566Z,6.81
2023-05-07T04:42:47.267Z,6.07
2023-05-07T04:47:55.848Z,5.92
2023-05-07T04:53:05.428Z,6.58
2023-05-07T04:58:13.877Z,6.62
2023-05-07T05:03:23.311Z,5.82
2023-05-07T05:08:31.520Z,5.12
2023-05-07T05:13:40.880Z,6.06
2023-05-07T05:18:49.205Z,7.21
2023-05-07T05:23:58.948Z,6.93
2023-05-07T05:29:07.789Z,6.09
2023-05-07T05:34:16.928Z,7.21
2023-05-07T05:39:25.526Z,6.18
2023-05-07T05:44:34.327Z,6.19
2023-05-07T05:49:43.078Z,5.77
2023-05-07T05:54:52.157Z,5.44
2023-05-07T06:00:00.956Z,5.39
2023-05-07T06:05:09.602Z,4.39
2023-05-07T06:10:17.938Z,6.25
2023-05-07T06:15:27.303Z,5.16
2023-05-07T06:20:36.082Z,5.63
2023-05-07T06:25:45.156Z,4.95
2023-05-07T06:30:53.828Z,3.62
2023-05-07T06:36:02.926Z,3.83
2023-05-07T06:41:11.348Z,3.35
2023-05-07T06:46:19.905Z,5.49
2023-05-07T06:51:28.730Z,4.21
2023-05-07T06:56:40.470Z,4.55
2023-05-07T07:01:38.724Z,3.20
2023-05-07T07:06:47.740Z,3.44
2023-05-07T07:11:56.579Z,3.37
2023-05-07T07:17:05.444Z,3.39
2023-05-07T07:22:13.944Z,4.43
2023-05-07T07:27:23.284Z,3.14
2023-05-07T07:32:31.946Z,2.74
2023-05-07T07:37:40.386Z,3.79
2023-05-07T07:42:49.268Z,4.27
2023-05-07T07:47:58.634Z,3.51
2023-05-07T07:53:07.265Z,4.25
2023-05-07T07:58:16.175Z,2.68
2023-05-07T08:03:24.949Z,2.90
2023-05-07T08:08:33.843Z,3.72
2023-05-07T08:13:42.377Z,3.77
2023-05-07T08:18:51.046Z,3.65
2023-05-07T08:23:59.581Z,3.35
2023-05-07T08:29:08.736Z,3.99
2023-05-07T08:34:17.242Z,3.70
2023-05-07T08:39:26.216Z,3.30
2023-05-07T08:44:34.664Z,3.37
2023-05-07T08:49:43.277Z,3.70
2023-05-07T08:54:52.282Z,3.31
2023-05-07T09:00:00.894Z,3.84
2023-05-07T09:05:09.627Z,4.02
2023-05-07T09:10:18.575Z,3.90
2023-05-07T09:15:27.044Z,4.15
2023-05-07T09:20:35.800Z,3.75
2023-05-07T09:25:44.165Z,3.83
2023-05-07T09:30:53.722Z,4.48
2023-05-07T09:36:02.427Z,4.83
2023-05-07T09:41:11.585Z,8.48
2023-05-07T09:46:20.008Z,7.52
2023-05-07T09:51:29.633Z,4.36
2023-05-07T09:56:37.874Z,3.73
2023-05-07T10:01:46.981Z,3.77
2023-05-07T10:06:55.543Z,4.19
2023-05-07T10:12:04.613Z,7.02
2023-05-07T10:17:13.193Z,4.11
2023-05-07T10:22:22.811Z,3.76
2023-05-07T10:27:31.049Z,5.31
2023-05-07T10:37:47.989Z,5.46
2023-05-07T10:42:57.188Z,4.01
2023-05-07T10:48:13.827Z,4.96
2023-05-07T10:53:14.093Z,3.40
2023-05-07T10:58:31.432Z,6.15
2023-05-07T11:03:32.468Z,4.73
2023-05-07T11:08:40.655Z,4.13
2023-05-07T11:13:49.657Z,3.31
2023-05-07T11:18:58.182Z,3.97
2023-05-07T11:24:07.083Z,3.95
2023-05-07T11:29:15.511Z,4.50
2023-05-07T11:34:24.337Z,4.19
2023-05-07T11:39:32.915Z,4.84
2023-05-07T11:44:41.581Z,5.95
2023-05-07T11:49:50.618Z,4.00
2023-05-07T11:54:59.837Z,3.86
2023-05-07T12:00:08.574Z,4.46
2023-05-07T12:05:17.668Z,4.58
2023-05-07T12:10:26.187Z,10.99
2023-05-07T12:15:35.098Z,4.70
2023-05-07T12:20:43.753Z,5.11
2023-05-07T12:25:52.485Z,3.68
2023-05-07T12:31:01.286Z,4.95
2023-05-07T12:36:09.957Z,4.91
2023-05-07T12:41:18.881Z,7.20
2023-05-07T12:46:28.175Z,96.45
2023-05-07T12:51:36.483Z,4.75
2023-05-07T12:56:45.377Z,4.14
2023-05-07T13:01:53.867Z,3.66
2023-05-07T13:07:03.261Z,4.17
2023-05-07T13:12:11.582Z,6.30
2023-05-07T13:17:20.411Z,5.34
2023-05-07T13:22:28.913Z,2.62
2023-05-07T13:27:38.032Z,4.14
2023-05-07T13:32:46.516Z,4.22
2023-05-07T13:37:58.524Z,3.49
2023-05-07T13:42:56.656Z,4.62
2023-05-07T13:48:06.144Z,3.42
2023-05-07T13:53:14.745Z,3.21
2023-05-07T13:58:23.645Z,3.00
2023-05-07T14:03:32.043Z,4.15
2023-05-07T14:08:40.989Z,4.77
2023-05-07T14:13:49.222Z,4.14
2023-05-07T14:18:58.798Z,2.58
2023-05-07T14:24:06.981Z,3.31
2023-05-07T14:29:16.119Z,6.71
2023-05-07T14:34:24.455Z,3.08
2023-05-07T14:39:33.732Z,4.13
2023-05-07T14:44:42.292Z,4.28
2023-05-07T14:49:51.721Z,3.96
2023-05-07T14:55:00.415Z,3.84
2023-05-07T15:00:09.646Z,3.53
2023-05-07T15:05:18.707Z,2.97
2023-05-07T15:10:28.020Z,4.22
2023-05-07T15:15:37.375Z,4.09
2023-05-07T15:20:46.014Z,3.86
2023-05-07T15:25:54.551Z,3.96
2023-05-07T15:30:58.725Z,3.23
2023-05-07T15:36:07.989Z,4.74
2023-05-07T15:41:21.076Z,3.98
2023-05-07T15:46:19.802Z,4.80
2023-05-07T15:51:32.695Z,3.42
2023-05-07T15:56:31.357Z,3.50
2023-05-07T16:01:45.281Z,3.52
2023-05-07T16:06:41.923Z,4.63
2023-05-07T16:11:50.757Z,3.56
2023-05-07T16:17:12.296Z,4.40
2023-05-07T16:22:00.765Z,4.32
2023-05-07T16:27:08.452Z,6.31
2023-05-07T16:32:17.216Z,4.35
2023-05-07T16:37:25.617Z,5.05
2023-05-07T16:42:34.638Z,26.80
2023-05-07T16:47:43.573Z,82.14
2023-05-07T16:52:52.850Z,72.50
2023-05-07T16:58:01.798Z,80.93
2023-05-07T17:03:14.725Z,64.63
2023-05-07T17:08:14.487Z,44.22
2023-05-07T17:13:23.164Z,79.47
2023-05-07T17:18:31.788Z,46.82
2023-05-07T17:23:41.067Z,9.71
2023-05-07T17:28:49.629Z,8.99
2023-05-07T17:33:58.546Z,9.70
2023-05-07T17:39:07.486Z,5.82
2023-05-07T17:44:16.716Z,8.63
2023-05-07T17:49:25.336Z,10.48
2023-05-07T17:54:34.330Z,87.11
2023-05-07T17:59:43.162Z,22.74
2023-05-07T18:04:52.614Z,19.35
2023-05-07T18:10:01.371Z,13.07
2023-05-07T18:15:10.587Z,12.57
2023-05-07T18:20:19.214Z,6.97
2023-05-07T18:25:27.935Z,7.66
2023-05-07T18:30:36.933Z,7.70
2023-05-07T18:35:46.058Z,8.14
2023-05-07T18:40:54.468Z,7.86
2023-05-07T18:46:03.818Z,6.53
2023-05-07T18:51:12.533Z,7.20
2023-05-07T18:56:21.398Z,7.52
2023-05-07T19:01:30.615Z,8.35
2023-05-07T19:06:39.548Z,6.57
2023-05-07T19:11:48.431Z,7.30
2023-05-07T19:16:57.692Z,7.67
2023-05-07T19:22:06.444Z,7.80
2023-05-07T19:27:15.619Z,7.36
2023-05-07T19:32:24.498Z,7.30
2023-05-07T19:37:33.127Z,7.18
2023-05-07T19:42:41.881Z,8.37
2023-05-07T19:47:51.225Z,7.23
2023-05-07T19:53:00.302Z,7.68
2023-05-07T19:58:10.035Z,6.94
2023-05-07T20:03:19.694Z,7.40
2023-05-07T20:08:28.521Z,7.66
2023-05-07T20:13:36.857Z,9.00
2023-05-07T20:18:45.765Z,7.96
2023-05-07T20:23:54.541Z,8.74
2023-05-07T20:29:03.105Z,8.21
2023-05-07T20:34:11.619Z,8.18
2023-05-07T20:39:21.410Z,7.77
2023-05-07T20:44:29.776Z,9.19
2023-05-07T20:49:38.830Z,8.69
2023-05-07T20:54:47.807Z,8.75
2023-05-07T20:59:56.870Z,8.94
2023-05-07T21:05:05.703Z,9.31
2023-05-07T21:10:14.817Z,7.70
2023-05-07T21:15:23.195Z,7.76
2023-05-07T21:20:32.277Z,8.22
2023-05-07T21:25:40.784Z,8.95
2023-05-07T21:30:49.706Z,10.01
2023-05-07T21:35:58.456Z,8.22
2023-05-07T21:41:07.637Z,8.58
2023-05-07T21:46:16.379Z,8.43
2023-05-07T21:51:25.395Z,9.93
2023-05-07T21:56:33.927Z,9.59
2023-05-07T22:01:42.981Z,10.85
2023-05-07T22:06:51.880Z,8.48
2023-05-07T22:12:01.388Z,8.79
2023-05-07T22:17:10.141Z,8.75
2023-05-07T22:22:19.741Z,8.09
2023-05-07T22:27:28.165Z,8.90
2023-05-07T22:32:37.041Z,8.27
2023-05-07T22:37:45.421Z,8.72
2023-05-07T22:42:54.197Z,7.58
2023-05-07T22:48:03.038Z,9.12
2023-05-07T22:53:11.640Z,8.39
2023-05-07T22:58:20.034Z,9.07
2023-05-07T23:03:29.117Z,11.00
2023-05-07T23:08:38.148Z,12.28
2023-05-07T23:13:47.242Z,14.16
2023-05-07T23:18:55.890Z,14.44
2023-05-07T23:24:04.873Z,14.36
2023-05-07T23:29:13.226Z,15.80
2023-05-07T23:34:21.870Z,14.54
2023-05-07T23:39:30.323Z,16.00
2023-05-07T23:44:39.271Z,15.83
2023-05-07T23:49:47.666Z,16.41
2023-05-07T23:54:57.119Z,18.05
